Time;durP1;ratioP1;P1;durP2;ratioP2;P2;SDS_P1;SDS_P2;PMS_P1;PMS_P2;Temp;Humidity;BMP_temperature;BMP_pressure;BME280_temperature;BME280_humidity;BME280_pressure;Samples;Min_cycle;Max_cycle;Signal;HPM_P1;HPM_P2
2021/03/18 00:02:21;;;;;;;0.40;0.40;;;;;;;-0.82;99.55;101901.75;5053713;28;20450;-67
2021/03/18 00:04:47;;;;;;;0.40;0.30;;;;;;;-0.79;99.88;101901.38;5053522;28;20445;-67
2021/03/18 00:07:13;;;;;;;0.40;0.30;;;;;;;-0.82;99.97;101901.75;5053650;28;20442;-67
2021/03/18 00:09:39;;;;;;;0.40;0.30;;;;;;;-0.81;99.62;101900.75;5053542;28;20940;-67
2021/03/18 00:12:06;;;;;;;0.40;0.30;;;;;;;-0.83;99.20;101902.78;5053482;28;21019;-67
2021/03/18 00:14:33;;;;;;;0.43;0.40;;;;;;;-1.02;99.22;101898.09;5053471;28;20438;-69
2021/03/18 00:16:59;;;;;;;0.40;0.40;;;;;;;-1.13;100.00;101895.97;5053390;28;20803;-68
2021/03/18 00:19:25;;;;;;;0.70;0.70;;;;;;;-1.17;100.00;101900.03;5053508;28;20488;-67
2021/03/18 00:21:51;;;;;;;0.40;0.30;;;;;;;-1.26;100.00;101896.69;5053294;28;20474;-68
2021/03/18 00:24:18;;;;;;;0.40;0.30;;;;;;;-1.11;100.00;101881.47;5053343;28;20449;-68
2021/03/18 00:26:44;;;;;;;0.50;0.50;;;;;;;-1.02;100.00;101882.16;5053159;28;20482;-68
2021/03/18 00:29:10;;;;;;;1.33;0.60;;;;;;;-1.09;100.00;101882.13;5053262;28;20798;-67
2021/03/18 00:31:36;;;;;;;0.40;0.37;;;;;;;-1.09;100.00;101883.94;5053244;28;20462;-67
2021/03/18 00:34:03;;;;;;;1.27;1.10;;;;;;;-1.05;100.00;101879.91;5053252;28;20453;-67
2021/03/18 00:36:30;;;;;;;0.50;0.40;;;;;;;-1.06;100.00;101878.25;5053286;28;20437;-67
2021/03/18 00:38:57;;;;;;;0.40;0.30;;;;;;;-1.02;100.00;101879.50;5053168;28;20442;-67
2021/03/18 00:41:24;;;;;;;0.40;0.40;;;;;;;-0.98;100.00;101877.28;5052936;28;20478;-68
2021/03/18 00:43:50;;;;;;;0.40;0.40;;;;;;;-1.10;100.00;101871.69;5053085;28;20450;-67
2021/03/18 00:46:16;;;;;;;0.40;0.30;;;;;;;-0.98;100.00;101875.44;5052918;28;21034;-68
2021/03/18 00:48:43;;;;;;;0.40;0.40;;;;;;;-1.03;100.00;101872.53;5053083;28;20448;-67
2021/03/18 00:51:14;;;;;;;3.40;0.93;;;;;;;-0.96;100.00;101873.44;5052963;28;20462;-67
2021/03/18 00:53:43;;;;;;;0.80;0.80;;;;;;;-0.90;100.00;101872.66;5052858;28;20982;-67
2021/03/18 00:56:12;;;;;;;2.20;2.10;;;;;;;-0.88;100.00;101875.94;5053010;28;20445;-67
2021/03/18 00:58:39;;;;;;;2.60;2.40;;;;;;;-0.85;100.00;101869.41;5053352;28;20965;-67
2021/03/18 01:01:06;;;;;;;0.70;0.50;;;;;;;-0.83;100.00;101872.72;5053919;28;20867;-68
2021/03/18 01:03:34;;;;;;;1.37;1.37;;;;;;;-0.84;100.00;101873.69;5052734;28;20951;-67
2021/03/18 01:06:05;;;;;;;1.10;1.00;;;;;;;-0.78;100.00;101873.75;5052873;28;20477;-67
2021/03/18 01:08:34;;;;;;;1.00;0.87;;;;;;;-0.70;100.00;101872.81;5052665;28;20435;-67
2021/03/18 01:11:03;;;;;;;3.93;1.63;;;;;;;-0.71;100.00;101868.47;5052811;28;20458;-67
2021/03/18 01:13:29;;;;;;;0.40;0.37;;;;;;;-0.73;100.00;101865.19;5052914;28;20453;-67
2021/03/18 01:15:59;;;;;;;1.10;1.00;;;;;;;-0.65;100.00;101864.25;5052637;28;20492;-68
2021/03/18 01:18:30;;;;;;;0.80;0.80;;;;;;;-0.58;100.00;101865.06;5052846;28;20450;-67
2021/03/18 01:20:56;;;;;;;3.13;0.83;;;;;;;-0.53;100.00;101857.34;5052717;28;20466;-67
2021/03/18 01:23:23;;;;;;;0.93;0.93;;;;;;;-0.54;100.00;101861.84;5052788;28;20496;-67
2021/03/18 01:25:48;;;;;;;1.97;0.70;;;;;;;-0.59;100.00;101853.63;5052323;28;20482;-67
2021/03/18 01:28:15;;;;;;;1.07;1.07;;;;;;;-0.59;100.00;101860.78;5052750;28;20446;-67
2021/03/18 01:30:41;;;;;;;3.87;1.97;;;;;;;-0.59;100.00;101855.47;5052582;28;20461;-67
2021/03/18 01:33:07;;;;;;;0.60;0.50;;;;;;;-0.65;100.00;101853.59;5052617;28;20438;-67
2021/03/18 01:35:34;;;;;;;1.57;1.23;;;;;;;-0.49;100.00;101853.25;5052608;28;20446;-66
2021/03/18 01:38:00;;;;;;;0.60;0.50;;;;;;;-0.45;100.00;101843.06;5052510;28;20449;-67
2021/03/18 01:40:31;;;;;;;0.40;0.30;;;;;;;-0.54;100.00;101839.72;5052349;28;20489;-67
2021/03/18 01:42:57;;;;;;;0.40;0.40;;;;;;;-0.65;100.00;101842.94;5052263;28;20438;-66
2021/03/18 01:45:24;;;;;;;0.80;0.80;;;;;;;-0.63;100.00;101844.38;5052468;28;20492;-66
2021/03/18 01:47:52;;;;;;;0.67;0.67;;;;;;;-0.56;100.00;101849.75;5052084;28;20439;-66
2021/03/18 01:50:20;;;;;;;0.40;0.30;;;;;;;-0.65;99.80;101840.28;5052404;28;20466;-66
2021/03/18 01:52:46;;;;;;;0.50;0.40;;;;;;;-0.57;99.91;101840.13;5052418;28;20805;-66
2021/03/18 01:55:19;;;;;;;0.53;0.40;;;;;;;-0.70;99.45;101846.19;5052374;28;20457;-67
2021/03/18 01:57:46;;;;;;;0.87;0.60;;;;;;;-0.68;99.64;101841.50;5052735;28;20430;-66
2021/03/18 02:00:14;;;;;;;0.73;0.73;;;;;;;-0.65;99.99;101848.28;5055888;28;20458;-67
2021/03/18 02:02:40;;;;;;;1.47;1.23;;;;;;;-0.67;99.76;101843.13;5055882;28;20439;-67
2021/03/18 02:05:07;;;;;;;2.27;2.10;;;;;;;-0.70;100.00;101845.38;5055537;28;20936;-67
2021/03/18 02:07:33;;;;;;;0.60;0.60;;;;;;;-0.74;100.00;101844.13;5055827;28;20503;-67
2021/03/18 02:09:59;;;;;;;0.40;0.40;;;;;;;-0.59;100.00;101848.31;5055446;28;20442;-67
2021/03/18 02:12:25;;;;;;;1.60;1.03;;;;;;;-0.46;99.75;101844.06;5055764;28;20466;-67
2021/03/18 02:14:52;;;;;;;4.13;1.40;;;;;;;-0.43;100.00;101843.69;5055748;28;21003;-67
2021/03/18 02:17:34;;;;;;;0.50;0.40;;;;;;;-0.35;99.85;101831.03;5055744;28;20438;-66
2021/03/18 02:20:26;;;;;;;0.40;0.30;;;;;;;-0.31;98.77;101840.28;5055577;28;20476;-68
2021/03/18 02:23:18;;;;;;;0.40;0.40;;;;;;;-0.23;98.83;101841.13;5022402;28;20447;-67
2021/03/18 02:25:52;;;;;;;0.50;0.40;;;;;;;-0.21;99.47;101839.09;5055563;28;20875;-67
2021/03/18 02:28:37;;;;;;;0.50;0.50;;;;;;;-0.28;100.00;101839.03;5055617;28;20449;-67
2021/03/18 02:31:10;;;;;;;0.50;0.43;;;;;;;-0.15;100.00;101848.94;5055465;28;20458;-67
2021/03/18 02:34:13;;;;;;;0.80;0.77;;;;;;;-0.25;100.00;101843.97;5055458;28;20529;-68
2021/03/18 02:36:46;;;;;;;0.40;0.40;;;;;;;-0.17;100.00;101841.16;5055327;28;20438;-67
2021/03/18 02:39:16;;;;;;;1.27;1.17;;;;;;;-0.15;100.00;101840.94;5055376;28;20427;-66
2021/03/18 02:41:45;;;;;;;0.83;0.47;;;;;;;-0.12;100.00;101844.03;5054862;28;20474;-66
2021/03/18 02:44:15;;;;;;;0.87;0.60;;;;;;;-0.18;100.00;101831.50;5054992;28;21013;-67
2021/03/18 02:46:42;;;;;;;0.63;0.57;;;;;;;-0.08;100.00;101834.63;5054801;28;20964;-67
2021/03/18 02:49:09;;;;;;;0.87;0.73;;;;;;;-0.16;100.00;101841.97;5055121;28;20453;-67
2021/03/18 02:51:38;;;;;;;1.20;1.00;;;;;;;-0.12;100.00;101827.25;5054619;28;20511;-67
2021/03/18 02:54:07;;;;;;;0.50;0.50;;;;;;;-0.15;100.00;101831.13;5054624;28;20443;-66
2021/03/18 02:56:34;;;;;;;0.73;0.73;;;;;;;-0.09;100.00;101821.50;5054982;28;20435;-67
2021/03/18 02:59:03;;;;;;;1.27;0.80;;;;;;;-0.06;100.00;101821.09;5054944;28;20800;-67
2021/03/18 03:01:30;;;;;;;2.57;1.93;;;;;;;0.05;100.00;101833.84;5054772;28;20466;-67
2021/03/18 03:03:57;;;;;;;0.77;0.70;;;;;;;-0.01;100.00;101826.66;5054692;28;20450;-67
2021/03/18 03:06:24;;;;;;;0.40;0.30;;;;;;;0.08;99.42;101828.09;5054708;28;20489;-67
2021/03/18 03:08:51;;;;;;;0.93;0.87;;;;;;;0.08;98.97;101830.78;5054295;28;20827;-66
2021/03/18 03:11:21;;;;;;;0.40;0.40;;;;;;;0.07;99.38;101826.47;5053597;28;20939;-67
2021/03/18 03:13:49;;;;;;;14.00;3.00;;;;;;;0.02;99.66;101828.94;5054383;28;20963;-66
2021/03/18 03:16:19;;;;;;;0.70;0.70;;;;;;;0.00;99.82;101825.66;5054583;28;20442;-67
2021/03/18 03:18:45;;;;;;;1.57;0.90;;;;;;;-0.02;99.68;101820.50;5054584;28;20438;-66
2021/03/18 03:21:12;;;;;;;2.53;1.47;;;;;;;0.02;99.76;101822.78;5054488;28;20462;-67
2021/03/18 03:23:39;;;;;;;1.77;1.53;;;;;;;0.04;99.14;101815.41;5054416;28;20456;-67
2021/03/18 03:26:06;;;;;;;0.40;0.30;;;;;;;0.00;99.81;101817.66;5054489;28;20532;-67
2021/03/18 03:28:35;;;;;;;0.50;0.50;;;;;;;0.06;99.59;101814.19;5055517;28;20451;-66
2021/03/18 03:31:01;;;;;;;0.40;0.40;;;;;;;-0.01;100.00;101816.00;5054087;28;20847;-67
2021/03/18 03:33:29;;;;;;;0.80;0.80;;;;;;;-0.07;100.00;101811.47;5054333;28;20446;-66
2021/03/18 03:35:56;;;;;;;2.00;1.47;;;;;;;0.02;100.00;101810.28;5054207;28;20438;-67
2021/03/18 03:38:23;;;;;;;0.57;0.57;;;;;;;0.00;100.00;101817.66;5054202;28;20434;-67
2021/03/18 03:40:51;;;;;;;1.13;0.87;;;;;;;0.08;100.00;101809.47;5053765;28;20474;-67
2021/03/18 03:43:18;;;;;;;0.40;0.40;;;;;;;0.01;100.00;101810.50;5054016;28;20457;-67
2021/03/18 03:45:45;;;;;;;1.33;0.83;;;;;;;0.04;100.00;101812.72;5053933;28;20536;-67
2021/03/18 03:48:11;;;;;;;0.83;0.60;;;;;;;0.15;100.00;101812.97;5054018;28;20449;-67
2021/03/18 03:50:38;;;;;;;0.40;0.30;;;;;;;0.08;99.54;101811.31;5053876;28;20476;-66
2021/03/18 03:53:11;;;;;;;1.90;1.80;;;;;;;0.11;100.00;101813.59;5053903;28;20454;-67
2021/03/18 03:55:46;;;;;;;1.27;0.80;;;;;;;0.15;100.00;101807.66;5053861;28;20426;-66
2021/03/18 03:58:18;;;;;;;2.33;2.13;;;;;;;0.09;99.55;101813.78;5053822;28;20438;-66
2021/03/18 04:00:46;;;;;;;0.50;0.40;;;;;;;0.11;99.84;101811.75;5053379;28;20991;-66
2021/03/18 04:03:13;;;;;;;0.40;0.30;;;;;;;0.11;100.00;101806.41;5053711;28;20442;-67
2021/03/18 04:05:43;;;;;;;0.40;0.30;;;;;;;0.15;100.00;101805.00;5053578;28;20492;-67
2021/03/18 04:08:12;;;;;;;2.33;1.80;;;;;;;0.23;100.00;101814.66;5053638;28;20847;-67
2021/03/18 04:10:41;;;;;;;0.50;0.50;;;;;;;0.28;100.00;101812.19;5053453;28;20470;-67
2021/03/18 04:13:09;;;;;;;0.70;0.40;;;;;;;0.28;100.00;101806.03;5053564;28;20466;-67
2021/03/18 04:15:36;;;;;;;0.50;0.40;;;;;;;0.33;100.00;101803.59;5053210;28;20818;-66
2021/03/18 04:18:04;;;;;;;0.50;0.50;;;;;;;0.37;100.00;101804.81;5053491;28;20442;-66
2021/03/18 04:20:33;;;;;;;0.70;0.70;;;;;;;0.22;100.00;101805.84;5053027;28;20458;-66
2021/03/18 04:23:03;;;;;;;12.83;1.53;;;;;;;0.37;100.00;101794.16;5053411;28;20529;-66
2021/03/18 04:25:30;;;;;;;1.60;1.50;;;;;;;0.53;100.00;101795.59;5053102;28;20839;-66
2021/03/18 04:27:58;;;;;;;0.50;0.43;;;;;;;0.36;100.00;101788.03;5053383;28;20446;-67
2021/03/18 04:30:27;;;;;;;5.50;0.70;;;;;;;0.37;100.00;101794.16;5053262;28;20470;-67
2021/03/18 04:32:53;;;;;;;0.40;0.40;;;;;;;0.34;100.00;101795.38;5053279;28;20499;-66
2021/03/18 04:35:21;;;;;;;0.50;0.40;;;;;;;0.38;100.00;101785.13;5053237;28;20446;-66
2021/03/18 04:37:48;;;;;;;1.33;1.23;;;;;;;0.28;100.00;101792.72;5053216;28;20441;-66
2021/03/18 04:40:16;;;;;;;0.40;0.30;;;;;;;0.29;100.00;101789.03;5053002;28;20477;-66
2021/03/18 04:42:43;;;;;;;2.67;0.93;;;;;;;0.31;100.00;101784.31;5069227;22;20494;-64
2021/03/18 04:45:11;;;;;;;2.00;1.90;;;;;;;0.22;100.00;101786.34;5052973;28;20512;-65
2021/03/18 04:47:39;;;;;;;0.50;0.40;;;;;;;0.28;100.00;101782.06;5052949;28;20482;-61
2021/03/18 04:50:07;;;;;;;0.50;0.50;;;;;;;0.36;99.33;101781.88;5053193;28;20437;-63
2021/03/18 04:52:34;;;;;;;0.50;0.40;;;;;;;0.33;99.35;101782.28;5053056;28;20458;-63
2021/03/18 04:55:00;;;;;;;0.80;0.60;;;;;;;0.27;98.80;101781.25;5053106;28;20500;-62
2021/03/18 04:57:28;;;;;;;0.40;0.30;;;;;;;0.31;99.22;101784.31;5053045;28;20865;-62
2021/03/18 04:59:57;;;;;;;0.40;0.30;;;;;;;0.29;99.11;101781.84;5053122;28;20438;-63
2021/03/18 05:02:25;;;;;;;0.40;0.33;;;;;;;0.33;99.58;101780.41;5052554;28;20839;-63
2021/03/18 05:04:52;;;;;;;0.93;0.60;;;;;;;0.43;98.69;101788.00;5053100;28;20450;-63
2021/03/18 05:07:20;;;;;;;0.50;0.40;;;;;;;0.37;98.97;101783.50;5052975;28;20477;-62
2021/03/18 05:09:48;;;;;;;4.07;1.43;;;;;;;0.30;99.76;101783.47;5052629;28;20442;-64
2021/03/18 05:12:14;;;;;;;1.90;1.47;;;;;;;0.22;99.57;101781.84;5051622;28;20987;-63
2021/03/18 05:14:41;;;;;;;0.40;0.30;;;;;;;0.19;100.00;101782.25;5052892;28;20443;-63
2021/03/18 05:17:07;;;;;;;1.03;0.50;;;;;;;0.10;100.00;101779.97;5052978;28;20847;-62
2021/03/18 05:19:34;;;;;;;0.57;0.57;;;;;;;0.20;100.00;101775.91;5052290;28;20511;-65
2021/03/18 05:22:00;;;;;;;1.30;1.17;;;;;;;0.24;100.00;101779.78;5032746;28;20474;-66
2021/03/18 05:24:28;;;;;;;1.40;0.97;;;;;;;0.41;100.00;101774.09;5032405;28;20965;-64
2021/03/18 05:26:55;;;;;;;0.57;0.43;;;;;;;0.33;100.00;101760.94;5032952;28;20479;-65
2021/03/18 05:29:21;;;;;;;0.50;0.50;;;;;;;0.35;100.00;101764.22;5032588;28;20846;-62
2021/03/18 05:31:47;;;;;;;0.40;0.30;;;;;;;0.21;100.00;101763.38;5032908;28;20454;-63
2021/03/18 05:34:13;;;;;;;0.53;0.53;;;;;;;0.23;100.00;101762.19;5035372;28;20443;-63
2021/03/18 05:36:40;;;;;;;1.73;1.27;;;;;;;0.45;100.00;101759.31;5036306;28;20924;-63
2021/03/18 05:39:06;;;;;;;0.40;0.30;;;;;;;0.53;100.00;101759.09;5036610;28;20445;-63
2021/03/18 05:41:32;;;;;;;1.03;1.00;;;;;;;0.56;100.00;101760.53;5036278;28;20482;-64
2021/03/18 05:44:00;;;;;;;1.17;1.07;;;;;;;0.65;100.00;101756.66;5036239;28;20446;-63
2021/03/18 05:46:26;;;;;;;0.40;0.30;;;;;;;0.67;100.00;101747.44;5036083;28;21061;-62
2021/03/18 05:48:54;;;;;;;1.43;1.33;;;;;;;0.68;100.00;101754.38;5036417;28;20488;-62
2021/03/18 05:51:21;;;;;;;1.20;0.67;;;;;;;0.77;100.00;101754.19;5036297;28;20462;-65
2021/03/18 05:53:48;;;;;;;1.07;0.87;;;;;;;0.77;99.93;101748.84;5036022;28;20814;-63
2021/03/18 05:56:15;;;;;;;0.93;0.70;;;;;;;0.78;99.49;101747.81;5036239;28;20439;-63
2021/03/18 05:58:41;;;;;;;0.90;0.57;;;;;;;0.87;98.87;101752.72;5036297;28;20454;-62
2021/03/18 06:01:10;;;;;;;0.70;0.60;;;;;;;0.84;99.30;101749.63;5036212;28;20493;-63
2021/03/18 06:03:36;;;;;;;0.40;0.30;;;;;;;0.80;99.49;101751.09;5036207;28;20466;-63
2021/03/18 06:06:05;;;;;;;0.40;0.30;;;;;;;0.81;99.17;101750.91;5035955;28;20478;-61
2021/03/18 06:08:34;;;;;;;0.57;0.50;;;;;;;0.84;99.39;101741.66;5035765;28;20448;-60
2021/03/18 06:11:00;;;;;;;0.60;0.50;;;;;;;0.74;100.00;101748.22;5035854;28;20479;-60
2021/03/18 06:13:26;;;;;;;0.50;0.50;;;;;;;0.85;100.00;101743.31;5035615;28;20436;-61
2021/03/18 06:15:52;;;;;;;2.30;1.27;;;;;;;0.84;99.90;101741.66;5036396;28;20447;-59
2021/03/18 06:18:20;;;;;;;0.40;0.30;;;;;;;0.77;100.00;101748.84;5036366;28;20447;-60
2021/03/18 06:20:49;;;;;;;1.83;1.40;;;;;;;0.86;100.00;101747.59;5036489;28;20451;-60
2021/03/18 06:23:15;;;;;;;1.43;1.33;;;;;;;0.95;99.85;101754.34;5036209;28;21010;-61
2021/03/18 06:25:44;;;;;;;0.97;0.97;;;;;;;0.86;100.00;101750.28;5036331;28;20451;-61
2021/03/18 06:28:17;;;;;;;0.40;0.40;;;;;;;0.94;100.00;101750.06;5036263;28;20494;-61
2021/03/18 06:30:56;;;;;;;0.40;0.30;;;;;;;0.96;100.00;101746.13;5036084;28;20428;-60
2021/03/18 06:33:25;;;;;;;0.80;0.60;;;;;;;0.97;100.00;101752.28;5036493;28;20423;-61
2021/03/18 06:35:51;;;;;;;1.03;1.00;;;;;;;1.01;100.00;101753.50;5037477;28;20465;-60
2021/03/18 06:38:17;;;;;;;0.57;0.50;;;;;;;1.19;100.00;101748.34;5036947;28;20498;-62
2021/03/18 06:40:45;;;;;;;0.40;0.30;;;;;;;1.21;100.00;101743.63;5037189;28;20458;-62
2021/03/18 06:43:11;;;;;;;0.83;0.57;;;;;;;1.35;100.00;101748.91;5036934;28;20471;-61
2021/03/18 06:45:40;;;;;;;0.70;0.50;;;;;;;1.37;100.00;101753.00;5037164;28;20579;-61
2021/03/18 06:48:07;;;;;;;0.70;0.70;;;;;;;1.35;100.00;101754.25;5036792;28;20970;-60
2021/03/18 06:50:37;;;;;;;0.40;0.40;;;;;;;1.43;100.00;101746.84;5037047;28;20439;-60
2021/03/18 06:53:16;;;;;;;6.50;1.73;;;;;;;1.42;100.00;101755.06;5036936;28;20468;-61
2021/03/18 06:55:42;;;;;;;0.50;0.40;;;;;;;1.34;100.00;101749.94;5036901;28;20437;-60
2021/03/18 06:58:16;;;;;;;1.37;1.27;;;;;;;1.48;100.00;101744.34;5036841;28;20443;-60
2021/03/18 07:00:43;;;;;;;0.40;0.30;;;;;;;1.50;100.00;101742.25;5036601;28;20473;-61
2021/03/18 07:03:10;;;;;;;0.57;0.57;;;;;;;1.65;100.00;101738.53;5036398;28;20506;-61
2021/03/18 07:05:39;;;;;;;0.40;0.33;;;;;;;1.74;100.00;101742.59;5036574;28;20451;-60
2021/03/18 07:08:05;;;;;;;0.40;0.30;;;;;;;1.81;100.00;101742.53;5036382;28;20447;-60
2021/03/18 07:10:34;;;;;;;0.40;0.37;;;;;;;1.95;100.00;101744.13;5037105;28;20493;-60
2021/03/18 07:13:17;;;;;;;0.50;0.40;;;;;;;2.09;100.00;101742.19;5036728;28;20470;-60
2021/03/18 07:15:43;;;;;;;0.87;0.77;;;;;;;2.10;100.00;101741.94;5036584;28;20435;-60
2021/03/18 07:18:11;;;;;;;0.50;0.43;;;;;;;2.18;100.00;101735.53;5035986;28;20956;-60
2021/03/18 07:20:38;;;;;;;0.40;0.30;;;;;;;2.28;100.00;101750.03;5036052;28;20449;-60
2021/03/18 07:23:11;;;;;;;0.50;0.50;;;;;;;2.38;100.00;101743.38;5035554;28;20467;-60
2021/03/18 07:25:45;;;;;;;1.30;0.83;;;;;;;2.52;100.00;101744.91;5036123;28;20435;-60
2021/03/18 07:28:14;;;;;;;0.40;0.30;;;;;;;2.58;100.00;101738.72;5036267;28;20537;-60
2021/03/18 07:30:43;;;;;;;0.40;0.30;;;;;;;2.67;100.00;101740.06;5036008;28;20497;-60
2021/03/18 07:33:09;;;;;;;1.00;0.90;;;;;;;2.81;100.00;101730.06;5036019;28;20470;-60
2021/03/18 07:35:36;;;;;;;0.50;0.40;;;;;;;2.95;99.79;101739.56;5035804;28;20793;-60
2021/03/18 07:38:04;;;;;;;0.53;0.53;;;;;;;3.10;98.94;101739.22;5035608;28;20961;-60
2021/03/18 07:40:30;;;;;;;0.70;0.63;;;;;;;3.16;97.35;101732.97;5036205;28;20847;-59
2021/03/18 07:42:59;;;;;;;3.80;0.53;;;;;;;3.22;97.37;101733.94;5039805;28;20486;-60
2021/03/18 07:45:27;;;;;;;3.90;0.77;;;;;;;3.26;97.58;101733.25;5056720;28;20491;-60
2021/03/18 07:47:54;;;;;;;0.40;0.20;;;;;;;3.28;97.78;101733.88;5056062;28;20481;-60
2021/03/18 07:50:25;;;;;;;1.53;1.43;;;;;;;3.40;97.79;101733.09;5056069;28;20446;-62
2021/03/18 07:52:52;;;;;;;2.30;0.90;;;;;;;3.46;97.33;101729.56;5056398;28;20478;-60
2021/03/18 07:55:21;;;;;;;2.30;0.90;;;;;;;3.45;96.28;101733.25;5055420;28;20450;-63
2021/03/18 07:57:50;;;;;;;0.70;0.67;;;;;;;3.31;96.97;101731.78;5056208;28;20434;-60
2021/03/18 08:00:17;;;;;;;0.60;0.50;;;;;;;3.40;96.94;101727.75;5055361;28;20453;-59
2021/03/18 08:02:43;;;;;;;1.50;1.27;;;;;;;3.39;96.67;101718.09;5055123;28;20454;-60
2021/03/18 08:05:10;;;;;;;0.60;0.40;;;;;;;3.46;96.33;101724.19;5055426;28;20446;-59
2021/03/18 08:07:42;;;;;;;0.80;0.73;;;;;;;3.46;96.88;101716.16;5055597;28;20857;-56
2021/03/18 08:10:11;;;;;;;0.87;0.57;;;;;;;3.75;96.40;101720.69;5055557;28;20465;-60
2021/03/18 08:12:46;;;;;;;1.37;1.27;;;;;;;4.02;95.27;101717.63;5055656;28;20458;-60
2021/03/18 08:15:32;;;;;;;1.93;0.70;;;;;;;4.12;94.29;101717.91;5054546;28;20800;-61
2021/03/18 08:18:33;;;;;;;3.70;3.50;;;;;;;4.09;93.92;101723.72;5054955;28;20792;-61
2021/03/18 08:21:04;;;;;;;3.20;1.60;;;;;;;4.00;94.49;101711.69;5051902;28;20454;-61
2021/03/18 08:23:54;;;;;;;5.80;2.73;;;;;;;4.03;94.67;101711.25;5054860;28;20517;-61
2021/03/18 08:26:47;;;;;;;1.67;1.20;;;;;;;3.94;94.66;101715.28;5054916;28;20540;-61
2021/03/18 08:29:19;;;;;;;1.43;1.13;;;;;;;3.75;94.81;101718.00;5054491;28;20445;-61
2021/03/18 08:31:51;;;;;;;1.63;1.03;;;;;;;3.64;95.31;101712.63;5053457;28;20462;-61
2021/03/18 08:34:19;;;;;;;0.87;0.87;;;;;;;3.60;95.26;101708.75;5053514;28;20426;-62
2021/03/18 08:36:57;;;;;;;1.23;0.80;;;;;;;3.60;96.29;101712.25;5053363;28;20442;-61
2021/03/18 08:39:39;;;;;;;2.50;1.07;;;;;;;3.60;96.77;101717.63;5053460;28;20450;-62
2021/03/18 08:42:06;;;;;;;0.97;0.73;;;;;;;3.64;97.21;101712.63;5053464;28;20841;-62
2021/03/18 08:44:42;;;;;;;1.43;1.10;;;;;;;3.67;96.60;101707.59;5053173;28;20956;-62
2021/03/18 08:47:12;;;;;;;2.63;1.47;;;;;;;3.64;96.63;101713.44;5053091;28;20975;-62
2021/03/18 08:49:43;;;;;;;1.27;0.73;;;;;;;3.61;96.43;101715.75;5053711;28;20812;-62
2021/03/18 08:52:11;;;;;;;4.13;1.20;;;;;;;3.42;96.44;101717.66;5053377;28;20462;-61
2021/03/18 08:54:54;;;;;;;4.90;1.97;;;;;;;3.31;97.23;101705.00;5052571;28;20975;-62
2021/03/18 08:57:38;;;;;;;1.07;0.97;;;;;;;3.26;98.41;101709.16;5053239;28;20433;-63
2021/03/18 09:00:14;;;;;;;1.27;1.03;;;;;;;3.18;98.69;101700.63;5052497;28;20469;-61
2021/03/18 09:02:41;;;;;;;1.00;0.73;;;;;;;3.18;99.29;101701.44;5052606;28;21009;-62
2021/03/18 09:05:12;;;;;;;0.70;0.63;;;;;;;3.10;99.54;101699.09;5053091;28;20504;-62
2021/03/18 09:07:38;;;;;;;3.83;2.47;;;;;;;3.09;100.00;101692.06;5054881;28;20470;-61
2021/03/18 09:10:11;;;;;;;0.70;0.57;;;;;;;3.18;100.00;101693.41;5057078;28;20447;-62
2021/03/18 09:12:43;;;;;;;4.20;1.77;;;;;;;3.23;100.00;101693.56;5056994;28;20512;-62
2021/03/18 09:15:21;;;;;;;1.37;1.20;;;;;;;3.38;100.00;101684.31;5056958;28;20418;-62
2021/03/18 09:17:50;;;;;;;2.10;2.00;;;;;;;3.51;100.00;101690.31;5056999;28;20426;-62
2021/03/18 09:20:20;;;;;;;0.90;0.90;;;;;;;3.58;100.00;101694.75;5056865;28;20430;-63
2021/03/18 09:22:47;;;;;;;4.67;1.37;;;;;;;3.49;100.00;101705.78;5056769;28;20462;-62
2021/03/18 09:25:14;;;;;;;3.70;0.93;;;;;;;3.60;100.00;101703.41;5056919;28;20445;-63
2021/03/18 09:27:43;;;;;;;0.70;0.63;;;;;;;3.78;100.00;101711.41;5056658;28;20486;-62
2021/03/18 09:30:31;;;;;;;1.37;1.27;;;;;;;4.04;100.00;101707.50;5056798;28;20448;-62
2021/03/18 09:32:58;;;;;;;0.80;0.57;;;;;;;4.29;100.00;101713.50;5056618;28;20465;-63
2021/03/18 09:35:26;;;;;;;2.63;2.43;;;;;;;4.55;100.00;101714.91;5056638;28;20456;-63
2021/03/18 09:37:53;;;;;;;0.60;0.60;;;;;;;4.58;100.00;101710.16;5056607;28;20471;-61
2021/03/18 09:40:31;;;;;;;2.10;0.50;;;;;;;4.39;100.00;101710.25;5056665;28;20441;-62
2021/03/18 09:42:57;;;;;;;1.03;0.93;;;;;;;4.60;100.00;101708.03;5039014;28;20474;-61
2021/03/18 09:45:23;;;;;;;1.60;1.20;;;;;;;4.53;99.59;101706.28;5048790;28;20469;-61
2021/03/18 09:47:51;;;;;;;1.80;0.70;;;;;;;4.59;99.30;101707.22;5056364;28;20565;-61
2021/03/18 09:50:23;;;;;;;2.20;1.53;;;;;;;4.59;99.03;101704.53;5056351;28;20445;-62
2021/03/18 09:52:49;;;;;;;1.13;0.70;;;;;;;4.59;98.15;101711.78;5054819;28;20473;-61
2021/03/18 09:55:16;;;;;;;0.97;0.90;;;;;;;4.75;98.16;101709.22;5056242;28;20438;-61
2021/03/18 09:57:42;;;;;;;7.47;1.63;;;;;;;4.79;97.04;101706.88;5056455;28;20442;-61
2021/03/18 10:00:11;;;;;;;2.20;2.10;;;;;;;4.96;96.85;101710.47;5056247;28;20437;-59
2021/03/18 10:02:37;;;;;;;4.30;1.67;;;;;;;5.10;96.71;101700.31;5056193;28;20466;-60
2021/03/18 10:05:06;;;;;;;4.73;0.93;;;;;;;5.25;96.23;101697.91;5056075;28;20485;-62
2021/03/18 10:07:33;;;;;;;2.20;1.90;;;;;;;5.31;95.18;101698.81;5055688;28;21007;-61
2021/03/18 10:10:00;;;;;;;0.93;0.93;;;;;;;5.44;94.37;101697.72;5056035;28;20814;-61
2021/03/18 10:12:28;;;;;;;2.77;1.50;;;;;;;5.54;93.72;101693.38;5055879;28;20457;-61
2021/03/18 10:14:58;;;;;;;1.00;0.90;;;;;;;5.77;94.16;101688.97;5055889;28;20453;-61
2021/03/18 10:17:27;;;;;;;2.00;1.90;;;;;;;5.86;93.04;101692.88;5055831;28;20492;-62
2021/03/18 10:20:00;;;;;;;0.60;0.60;;;;;;;5.72;93.00;101689.69;5055201;28;20453;-62
2021/03/18 10:22:32;;;;;;;1.33;1.20;;;;;;;5.71;90.85;101682.69;5055803;28;20470;-62
2021/03/18 10:25:02;;;;;;;2.60;1.30;;;;;;;5.66;91.28;101682.56;5055814;28;20518;-62
2021/03/18 10:27:31;;;;;;;1.53;1.07;;;;;;;5.46;89.87;101674.16;5055878;28;20535;-61
2021/03/18 10:30:07;;;;;;;1.27;0.63;;;;;;;5.36;90.94;101672.09;5055651;28;20451;-61
2021/03/18 10:32:33;;;;;;;3.97;2.10;;;;;;;5.44;91.78;101665.50;5055545;28;20461;-61
2021/03/18 10:34:59;;;;;;;1.70;1.53;;;;;;;5.51;92.32;101671.56;5055586;28;20886;-61
2021/03/18 10:37:28;;;;;;;0.80;0.80;;;;;;;5.61;91.79;101679.78;5055105;28;20441;-62
2021/03/18 10:40:10;;;;;;;1.37;1.27;;;;;;;5.65;91.56;101672.88;5055157;28;21057;-61
2021/03/18 10:42:36;;;;;;;0.60;0.50;;;;;;;5.37;91.44;101662.16;5085775;22;20500;-66
2021/03/18 10:45:12;;;;;;;0.77;0.77;;;;;;;5.42;92.37;101656.88;5075281;28;20426;-67
2021/03/18 10:47:40;;;;;;;1.33;0.50;;;;;;;5.62;93.31;101648.34;5072689;28;20465;-66
2021/03/18 10:50:08;;;;;;;0.80;0.70;;;;;;;5.78;93.00;101645.69;5055139;28;20441;-67
2021/03/18 10:52:37;;;;;;;0.80;0.60;;;;;;;6.05;91.22;101639.72;5057773;28;21063;-67
2021/03/18 10:55:03;;;;;;;4.27;1.87;;;;;;;6.09;89.25;101645.44;5074806;28;20437;-67
2021/03/18 10:57:30;;;;;;;1.00;0.60;;;;;;;6.31;89.11;101646.31;5070255;28;20555;-66
2021/03/18 10:59:57;;;;;;;1.73;1.63;;;;;;;6.51;88.83;101637.75;5074937;28;20445;-66
2021/03/18 11:02:24;;;;;;;1.60;1.40;;;;;;;6.63;88.53;101632.22;5056851;28;20463;-67
2021/03/18 11:04:52;;;;;;;2.87;1.23;;;;;;;6.89;89.12;101622.59;5073030;28;20449;-67
2021/03/18 11:07:18;;;;;;;1.03;0.93;;;;;;;6.81;87.26;101631.94;5074426;28;21002;-67
2021/03/18 11:09:44;;;;;;;0.83;0.83;;;;;;;6.69;83.67;101626.69;5067126;28;20446;-68
2021/03/18 11:12:10;;;;;;;2.00;0.90;;;;;;;6.89;84.23;101620.72;5054670;28;20496;-67
2021/03/18 11:14:36;;;;;;;23.33;1.97;;;;;;;7.18;82.93;101618.66;5060185;28;20446;-66
2021/03/18 11:17:04;;;;;;;1.60;1.03;;;;;;;7.42;83.09;101618.34;5074661;28;20442;-67
2021/03/18 11:19:30;;;;;;;4.07;1.67;;;;;;;7.72;82.49;101612.44;5063420;28;20453;-68
2021/03/18 11:22:00;;;;;;;0.83;0.83;;;;;;;7.80;79.07;101612.78;5054540;28;20496;-68
2021/03/18 11:24:28;;;;;;;1.57;1.47;;;;;;;7.95;77.00;101605.88;5064410;28;20441;-67
2021/03/18 11:26:57;;;;;;;2.10;1.00;;;;;;;8.27;77.21;101601.25;5074375;28;20508;-67
2021/03/18 11:29:27;;;;;;;3.00;0.63;;;;;;;8.22;75.33;101595.81;5068501;28;20450;-66
2021/03/18 11:31:57;;;;;;;2.57;1.20;;;;;;;8.69;76.39;101591.53;5066373;28;21024;-68
2021/03/18 11:34:25;;;;;;;4.40;1.37;;;;;;;8.51;73.26;101590.09;5074296;28;20464;-67
2021/03/18 11:36:53;;;;;;;1.87;1.40;;;;;;;8.47;71.81;101587.09;5065799;28;20975;-68